sensor_id;sensor_type;location;lat;lon;timestamp;P1;durP1;ratioP1;P2;durP2;ratioP2
79363;SDS011;68832;53.112;17.980;2023-05-10T00:01:00;6.70;;;3.30;;
79363;SDS011;68832;53.112;17.980;2023-05-10T00:03:27;4.40;;;3.30;;
79363;SDS011;68832;53.112;17.980;2023-05-10T00:05:53;4.10;;;2.50;;
79363;SDS011;68832;53.112;17.980;2023-05-10T00:08:20;6.10;;;3.50;;
79363;SDS011;68832;53.112;17.980;2023-05-10T00:10:48;4.80;;;2.70;;
79363;SDS011;68832;53.112;17.980;2023-05-10T00:13:15;6.00;;;3.80;;
79363;SDS011;68832;53.112;17.980;2023-05-10T00:15:42;5.30;;;3.20;;
79363;SDS011;68832;53.112;17.980;2023-05-10T00:18:09;5.90;;;2.90;;
79363;SDS011;68832;53.112;17.980;2023-05-10T00:20:35;4.90;;;2.90;;
79363;SDS011;68832;53.112;17.980;2023-05-10T00:23:02;4.90;;;3.50;;
79363;SDS011;68832;53.112;17.980;2023-05-10T00:25:29;6.60;;;3.00;;
79363;SDS011;68832;53.112;17.980;2023-05-10T00:27:56;3.90;;;2.80;;
79363;SDS011;68832;53.112;17.980;2023-05-10T00:30:24;6.80;;;4.20;;
79363;SDS011;68832;53.112;17.980;2023-05-10T00:32:50;5.00;;;3.80;;
79363;SDS011;68832;53.112;17.980;2023-05-10T00:35:18;3.50;;;2.50;;
79363;SDS011;68832;53.112;17.980;2023-05-10T00:37:45;4.70;;;2.80;;
79363;SDS011;68832;53.112;17.980;2023-05-10T00:40:12;4.40;;;2.10;;
79363;SDS011;68832;53.112;17.980;2023-05-10T00:42:40;3.50;;;2.70;;
79363;SDS011;68832;53.112;17.980;2023-05-10T00:45:07;2.90;;;1.80;;
79363;SDS011;68832;53.112;17.980;2023-05-10T00:47:35;4.30;;;2.00;;
79363;SDS011;68832;53.112;17.980;2023-05-10T00:50:02;5.50;;;3.10;;
79363;SDS011;68832;53.112;17.980;2023-05-10T00:52:29;5.30;;;3.50;;
79363;SDS011;68832;53.112;17.980;2023-05-10T00:54:58;6.20;;;3.40;;
79363;SDS011;68832;53.112;17.980;2023-05-10T00:57:25;4.60;;;2.30;;
79363;SDS011;68832;53.112;17.980;2023-05-10T00:59:52;7.30;;;3.30;;
79363;SDS011;68832;53.112;17.980;2023-05-10T01:02:20;4.50;;;3.10;;
79363;SDS011;68832;53.112;17.980;2023-05-10T01:04:46;5.90;;;4.40;;
79363;SDS011;68832;53.112;17.980;2023-05-10T01:07:14;5.60;;;3.30;;
79363;SDS011;68832;53.112;17.980;2023-05-10T01:09:40;5.10;;;2.80;;
79363;SDS011;68832;53.112;17.980;2023-05-10T01:12:07;3.60;;;2.70;;
79363;SDS011;68832;53.112;17.980;2023-05-10T01:14:34;4.50;;;2.70;;
79363;SDS011;68832;53.112;17.980;2023-05-10T01:17:02;3.60;;;1.60;;
79363;SDS011;68832;53.112;17.980;2023-05-10T01:19:30;6.20;;;3.60;;
79363;SDS011;68832;53.112;17.980;2023-05-10T01:22:19;6.80;;;3.10;;
79363;SDS011;68832;53.112;17.980;2023-05-10T01:30:50;4.80;;;2.30;;
79363;SDS011;68832;53.112;17.980;2023-05-10T01:33:32;4.60;;;2.60;;
79363;SDS011;68832;53.112;17.980;2023-05-10T01:36:06;4.10;;;2.60;;
79363;SDS011;68832;53.112;17.980;2023-05-10T01:41:18;4.10;;;3.00;;
79363;SDS011;68832;53.112;17.980;2023-05-10T01:46:31;5.50;;;3.20;;
79363;SDS011;68832;53.112;17.980;2023-05-10T01:49:02;4.90;;;2.90;;
79363;SDS011;68832;53.112;17.980;2023-05-10T01:51:36;6.40;;;4.50;;
79363;SDS011;68832;53.112;17.980;2023-05-10T01:54:06;6.60;;;3.20;;
79363;SDS011;68832;53.112;17.980;2023-05-10T01:56:35;4.90;;;2.40;;
79363;SDS011;68832;53.112;17.980;2023-05-10T01:59:06;5.20;;;4.50;;
79363;SDS011;68832;53.112;17.980;2023-05-10T02:01:37;5.10;;;2.70;;
79363;SDS011;68832;53.112;17.980;2023-05-10T02:06:32;5.60;;;3.40;;
79363;SDS011;68832;53.112;17.980;2023-05-10T02:09:00;4.60;;;2.80;;
79363;SDS011;68832;53.112;17.980;2023-05-10T02:11:28;4.90;;;3.40;;
79363;SDS011;68832;53.112;17.980;2023-05-10T02:13:56;5.40;;;3.50;;
79363;SDS011;68832;53.112;17.980;2023-05-10T02:16:27;4.70;;;2.50;;
79363;SDS011;68832;53.112;17.980;2023-05-10T02:18:57;4.10;;;2.90;;
79363;SDS011;68832;53.112;17.980;2023-05-10T02:21:24;7.00;;;2.30;;
79363;SDS011;68832;53.112;17.980;2023-05-10T02:23:52;4.90;;;3.50;;
79363;SDS011;68832;53.112;17.980;2023-05-10T02:26:20;4.90;;;3.70;;
79363;SDS011;68832;53.112;17.980;2023-05-10T02:31:15;5.40;;;4.40;;
79363;SDS011;68832;53.112;17.980;2023-05-10T02:33:42;2.80;;;1.60;;
79363;SDS011;68832;53.112;17.980;2023-05-10T02:36:10;9.10;;;4.00;;
79363;SDS011;68832;53.112;17.980;2023-05-10T02:38:37;7.20;;;3.50;;
79363;SDS011;68832;53.112;17.980;2023-05-10T02:41:04;9.60;;;3.60;;
79363;SDS011;68832;53.112;17.980;2023-05-10T02:43:32;6.50;;;2.80;;
79363;SDS011;68832;53.112;17.980;2023-05-10T02:46:00;4.80;;;3.10;;
79363;SDS011;68832;53.112;17.980;2023-05-10T02:48:26;5.30;;;4.70;;
79363;SDS011;68832;53.112;17.980;2023-05-10T02:50:54;5.60;;;2.80;;
79363;SDS011;68832;53.112;17.980;2023-05-10T02:53:23;6.70;;;2.70;;
79363;SDS011;68832;53.112;17.980;2023-05-10T02:55:58;4.70;;;2.60;;
79363;SDS011;68832;53.112;17.980;2023-05-10T02:58:27;5.90;;;3.70;;
79363;SDS011;68832;53.112;17.980;2023-05-10T03:00:53;6.40;;;4.00;;
79363;SDS011;68832;53.112;17.980;2023-05-10T03:03:20;6.00;;;3.10;;
79363;SDS011;68832;53.112;17.980;2023-05-10T03:05:52;5.60;;;3.10;;
79363;SDS011;68832;53.112;17.980;2023-05-10T03:08:22;6.70;;;4.00;;
79363;SDS011;68832;53.112;17.980;2023-05-10T03:13:44;7.90;;;2.70;;
79363;SDS011;68832;53.112;17.980;2023-05-10T03:16:15;8.90;;;4.50;;
79363;SDS011;68832;53.112;17.980;2023-05-10T03:19:30;5.70;;;3.90;;
79363;SDS011;68832;53.112;17.980;2023-05-10T03:21:36;10.20;;;5.00;;
79363;SDS011;68832;53.112;17.980;2023-05-10T03:24:08;8.60;;;3.90;;
79363;SDS011;68832;53.112;17.980;2023-05-10T03:26:38;6.60;;;2.80;;
79363;SDS011;68832;53.112;17.980;2023-05-10T03:29:09;7.60;;;4.80;;
79363;SDS011;68832;53.112;17.980;2023-05-10T03:31:37;5.20;;;3.00;;
79363;SDS011;68832;53.112;17.980;2023-05-10T03:34:05;5.50;;;4.00;;
79363;SDS011;68832;53.112;17.980;2023-05-10T03:36:32;6.60;;;4.40;;
79363;SDS011;68832;53.112;17.980;2023-05-10T03:38:59;6.90;;;3.80;;
79363;SDS011;68832;53.112;17.980;2023-05-10T03:41:26;4.80;;;3.10;;
79363;SDS011;68832;53.112;17.980;2023-05-10T03:43:53;9.10;;;3.80;;
79363;SDS011;68832;53.112;17.980;2023-05-10T03:46:20;5.60;;;3.20;;
79363;SDS011;68832;53.112;17.980;2023-05-10T03:48:47;6.80;;;4.00;;
79363;SDS011;68832;53.112;17.980;2023-05-10T03:51:14;5.30;;;3.50;;
79363;SDS011;68832;53.112;17.980;2023-05-10T03:53:41;4.10;;;2.20;;
79363;SDS011;68832;53.112;17.980;2023-05-10T03:56:08;6.60;;;4.30;;
79363;SDS011;68832;53.112;17.980;2023-05-10T03:58:35;6.60;;;2.60;;
79363;SDS011;68832;53.112;17.980;2023-05-10T04:01:03;6.90;;;3.80;;
79363;SDS011;68832;53.112;17.980;2023-05-10T04:03:30;6.40;;;3.80;;
79363;SDS011;68832;53.112;17.980;2023-05-10T04:05:58;8.20;;;4.20;;
79363;SDS011;68832;53.112;17.980;2023-05-10T04:08:27;6.70;;;3.60;;
79363;SDS011;68832;53.112;17.980;2023-05-10T04:10:54;3.60;;;2.00;;
79363;SDS011;68832;53.112;17.980;2023-05-10T04:13:21;7.30;;;3.60;;
79363;SDS011;68832;53.112;17.980;2023-05-10T04:15:48;9.10;;;3.80;;
79363;SDS011;68832;53.112;17.980;2023-05-10T04:18:15;9.30;;;3.60;;
79363;SDS011;68832;53.112;17.980;2023-05-10T04:20:43;8.30;;;3.40;;
79363;SDS011;68832;53.112;17.980;2023-05-10T04:23:10;4.90;;;2.80;;
79363;SDS011;68832;53.112;17.980;2023-05-10T04:25:37;6.30;;;4.10;;
79363;SDS011;68832;53.112;17.980;2023-05-10T04:28:03;4.00;;;2.20;;
79363;SDS011;68832;53.112;17.980;2023-05-10T04:30:31;7.90;;;3.10;;
79363;SDS011;68832;53.112;17.980;2023-05-10T04:32:58;7.00;;;3.20;;
79363;SDS011;68832;53.112;17.980;2023-05-10T04:35:24;3.90;;;2.50;;
79363;SDS011;68832;53.112;17.980;2023-05-10T04:37:51;5.90;;;2.70;;
79363;SDS011;68832;53.112;17.980;2023-05-10T04:40:18;4.40;;;3.20;;
79363;SDS011;68832;53.112;17.980;2023-05-10T04:42:45;5.20;;;3.00;;
79363;SDS011;68832;53.112;17.980;2023-05-10T04:45:12;4.30;;;2.40;;
79363;SDS011;68832;53.112;17.980;2023-05-10T04:47:41;7.10;;;3.70;;
79363;SDS011;68832;53.112;17.980;2023-05-10T04:50:07;5.10;;;2.00;;
79363;SDS011;68832;53.112;17.980;2023-05-10T04:52:34;6.70;;;3.00;;
79363;SDS011;68832;53.112;17.980;2023-05-10T04:55:02;6.00;;;4.20;;
79363;SDS011;68832;53.112;17.980;2023-05-10T04:57:29;8.90;;;3.90;;
79363;SDS011;68832;53.112;17.980;2023-05-10T04:59:55;5.00;;;4.00;;
79363;SDS011;68832;53.112;17.980;2023-05-10T05:02:22;7.00;;;3.00;;
79363;SDS011;68832;53.112;17.980;2023-05-10T05:04:50;6.50;;;3.50;;
79363;SDS011;68832;53.112;17.980;2023-05-10T05:07:17;6.30;;;3.20;;
79363;SDS011;68832;53.112;17.980;2023-05-10T05:09:44;4.20;;;2.70;;
79363;SDS011;68832;53.112;17.980;2023-05-10T05:12:10;8.60;;;3.80;;
79363;SDS011;68832;53.112;17.980;2023-05-10T05:14:40;4.80;;;2.40;;
79363;SDS011;68832;53.112;17.980;2023-05-10T05:17:07;5.40;;;2.90;;
79363;SDS011;68832;53.112;17.980;2023-05-10T05:19:34;7.00;;;3.80;;
79363;SDS011;68832;53.112;17.980;2023-05-10T05:22:02;2.10;;;1.20;;
79363;SDS011;68832;53.112;17.980;2023-05-10T05:24:29;6.20;;;2.60;;
79363;SDS011;68832;53.112;17.980;2023-05-10T05:26:55;7.40;;;2.50;;
79363;SDS011;68832;53.112;17.980;2023-05-10T05:29:22;4.80;;;2.50;;
79363;SDS011;68832;53.112;17.980;2023-05-10T05:31:49;5.30;;;2.80;;
79363;SDS011;68832;53.112;17.980;2023-05-10T05:34:16;3.20;;;1.60;;
79363;SDS011;68832;53.112;17.980;2023-05-10T05:36:42;3.50;;;1.30;;
79363;SDS011;68832;53.112;17.980;2023-05-10T05:39:09;7.70;;;2.20;;
79363;SDS011;68832;53.112;17.980;2023-05-10T05:41:36;9.00;;;2.70;;
79363;SDS011;68832;53.112;17.980;2023-05-10T05:44:03;13.20;;;2.30;;
79363;SDS011;68832;53.112;17.980;2023-05-10T05:46:30;4.70;;;1.80;;
79363;SDS011;68832;53.112;17.980;2023-05-10T05:48:57;3.80;;;1.40;;
79363;SDS011;68832;53.112;17.980;2023-05-10T05:51:23;4.30;;;2.40;;
79363;SDS011;68832;53.112;17.980;2023-05-10T05:53:50;5.50;;;2.00;;
79363;SDS011;68832;53.112;17.980;2023-05-10T05:56:17;3.40;;;2.10;;
79363;SDS011;68832;53.112;17.980;2023-05-10T05:58:50;3.00;;;2.10;;
79363;SDS011;68832;53.112;17.980;2023-05-10T06:01:17;4.10;;;2.10;;
79363;SDS011;68832;53.112;17.980;2023-05-10T06:03:45;4.10;;;1.70;;
79363;SDS011;68832;53.112;17.980;2023-05-10T06:06:12;5.90;;;1.20;;
79363;SDS011;68832;53.112;17.980;2023-05-10T06:08:39;8.00;;;2.00;;
79363;SDS011;68832;53.112;17.980;2023-05-10T06:11:05;3.70;;;2.20;;
79363;SDS011;68832;53.112;17.980;2023-05-10T06:13:32;6.90;;;1.50;;
79363;SDS011;68832;53.112;17.980;2023-05-10T06:16:02;5.90;;;2.30;;
79363;SDS011;68832;53.112;17.980;2023-05-10T06:18:29;5.40;;;2.00;;
79363;SDS011;68832;53.112;17.980;2023-05-10T06:20:56;6.50;;;2.90;;
79363;SDS011;68832;53.112;17.980;2023-05-10T06:23:22;5.10;;;2.30;;
79363;SDS011;68832;53.112;17.980;2023-05-10T06:25:51;3.40;;;1.80;;
79363;SDS011;68832;53.112;17.980;2023-05-10T06:28:18;2.40;;;1.20;;
79363;SDS011;68832;53.112;17.980;2023-05-10T06:30:45;4.10;;;1.20;;
79363;SDS011;68832;53.112;17.980;2023-05-10T06:33:12;3.10;;;1.70;;
79363;SDS011;68832;53.112;17.980;2023-05-10T06:35:39;6.50;;;1.80;;
79363;SDS011;68832;53.112;17.980;2023-05-10T06:38:05;4.80;;;1.50;;
79363;SDS011;68832;53.112;17.980;2023-05-10T06:40:32;5.40;;;1.50;;
79363;SDS011;68832;53.112;17.980;2023-05-10T06:42:59;5.50;;;1.60;;
79363;SDS011;68832;53.112;17.980;2023-05-10T06:45:26;5.20;;;1.90;;
79363;SDS011;68832;53.112;17.980;2023-05-10T06:47:53;3.50;;;1.40;;
79363;SDS011;68832;53.112;17.980;2023-05-10T06:50:20;3.10;;;1.70;;
79363;SDS011;68832;53.112;17.980;2023-05-10T06:52:46;6.40;;;2.30;;
79363;SDS011;68832;53.112;17.980;2023-05-10T06:55:13;4.80;;;1.60;;
79363;SDS011;68832;53.112;17.980;2023-05-10T06:57:40;3.90;;;1.80;;
79363;SDS011;68832;53.112;17.980;2023-05-10T07:00:07;6.80;;;1.80;;
79363;SDS011;68832;53.112;17.980;2023-05-10T07:02:36;4.90;;;1.00;;
79363;SDS011;68832;53.112;17.980;2023-05-10T07:05:03;5.00;;;2.00;;
79363;SDS011;68832;53.112;17.980;2023-05-10T07:07:30;6.40;;;1.70;;
79363;SDS011;68832;53.112;17.980;2023-05-10T07:09:57;4.00;;;1.60;;
79363;SDS011;68832;53.112;17.980;2023-05-10T07:12:24;5.10;;;2.20;;
79363;SDS011;68832;53.112;17.980;2023-05-10T07:14:51;5.00;;;1.80;;
79363;SDS011;68832;53.112;17.980;2023-05-10T07:17:18;2.90;;;2.10;;
79363;SDS011;68832;53.112;17.980;2023-05-10T07:19:45;3.40;;;2.00;;
79363;SDS011;68832;53.112;17.980;2023-05-10T07:22:12;5.20;;;2.20;;
79363;SDS011;68832;53.112;17.980;2023-05-10T07:24:39;3.20;;;1.40;;
79363;SDS011;68832;53.112;17.980;2023-05-10T07:27:06;2.00;;;1.20;;
79363;SDS011;68832;53.112;17.980;2023-05-10T07:29:33;2.70;;;1.60;;
79363;SDS011;68832;53.112;17.980;2023-05-10T07:32:00;3.60;;;1.20;;
79363;SDS011;68832;53.112;17.980;2023-05-10T07:34:27;4.50;;;2.50;;
79363;SDS011;68832;53.112;17.980;2023-05-10T07:36:57;5.10;;;1.00;;
79363;SDS011;68832;53.112;17.980;2023-05-10T07:39:25;4.30;;;1.20;;
79363;SDS011;68832;53.112;17.980;2023-05-10T07:41:53;4.20;;;1.90;;
79363;SDS011;68832;53.112;17.980;2023-05-10T07:44:22;10.20;;;3.00;;
79363;SDS011;68832;53.112;17.980;2023-05-10T07:46:49;4.90;;;2.00;;
79363;SDS011;68832;53.112;17.980;2023-05-10T07:49:16;3.50;;;1.40;;
79363;SDS011;68832;53.112;17.980;2023-05-10T07:51:43;4.00;;;1.20;;
79363;SDS011;68832;53.112;17.980;2023-05-10T07:54:10;6.80;;;1.10;;
79363;SDS011;68832;53.112;17.980;2023-05-10T07:56:37;6.00;;;1.10;;
79363;SDS011;68832;53.112;17.980;2023-05-10T07:59:03;3.80;;;1.40;;
79363;SDS011;68832;53.112;17.980;2023-05-10T08:01:33;3.50;;;1.70;;
79363;SDS011;68832;53.112;17.980;2023-05-10T08:06:28;6.60;;;1.10;;
79363;SDS011;68832;53.112;17.980;2023-05-10T08:08:56;8.50;;;1.70;;
79363;SDS011;68832;53.112;17.980;2023-05-10T08:11:23;5.60;;;1.00;;
79363;SDS011;68832;53.112;17.980;2023-05-10T08:13:50;3.30;;;1.40;;
79363;SDS011;68832;53.112;17.980;2023-05-10T08:16:17;8.60;;;1.70;;
79363;SDS011;68832;53.112;17.980;2023-05-10T08:18:45;4.70;;;4.10;;
79363;SDS011;68832;53.112;17.980;2023-05-10T08:21:13;4.70;;;1.60;;
79363;SDS011;68832;53.112;17.980;2023-05-10T08:23:40;2.30;;;1.10;;
79363;SDS011;68832;53.112;17.980;2023-05-10T08:26:07;3.40;;;1.40;;
79363;SDS011;68832;53.112;17.980;2023-05-10T08:28:34;3.00;;;1.30;;
79363;SDS011;68832;53.112;17.980;2023-05-10T08:31:01;4.60;;;1.80;;
79363;SDS011;68832;53.112;17.980;2023-05-10T08:33:28;4.20;;;2.10;;
79363;SDS011;68832;53.112;17.980;2023-05-10T08:35:54;5.70;;;1.50;;
79363;SDS011;68832;53.112;17.980;2023-05-10T08:38:21;3.90;;;1.50;;
79363;SDS011;68832;53.112;17.980;2023-05-10T08:40:48;7.10;;;1.50;;
79363;SDS011;68832;53.112;17.980;2023-05-10T08:43:17;9.60;;;1.40;;
79363;SDS011;68832;53.112;17.980;2023-05-10T08:45:44;8.00;;;1.70;;
79363;SDS011;68832;53.112;17.980;2023-05-10T08:48:13;4.60;;;1.10;;
79363;SDS011;68832;53.112;17.980;2023-05-10T08:50:41;5.40;;;1.30;;
79363;SDS011;68832;53.112;17.980;2023-05-10T08:53:10;7.80;;;1.40;;
79363;SDS011;68832;53.112;17.980;2023-05-10T08:55:38;4.50;;;1.60;;
79363;SDS011;68832;53.112;17.980;2023-05-10T08:58:05;5.10;;;1.50;;
79363;SDS011;68832;53.112;17.980;2023-05-10T09:00:33;8.10;;;2.00;;
79363;SDS011;68832;53.112;17.980;2023-05-10T09:03:00;5.20;;;1.50;;
79363;SDS011;68832;53.112;17.980;2023-05-10T09:05:27;4.80;;;1.80;;
79363;SDS011;68832;53.112;17.980;2023-05-10T09:07:54;3.60;;;1.80;;
79363;SDS011;68832;53.112;17.980;2023-05-10T09:10:21;3.60;;;0.80;;
79363;SDS011;68832;53.112;17.980;2023-05-10T09:12:52;3.70;;;1.40;;
79363;SDS011;68832;53.112;17.980;2023-05-10T09:17:47;5.10;;;1.10;;
79363;SDS011;68832;53.112;17.980;2023-05-10T09:20:15;2.90;;;1.20;;
79363;SDS011;68832;53.112;17.980;2023-05-10T09:22:44;5.20;;;1.30;;
79363;SDS011;68832;53.112;17.980;2023-05-10T09:25:12;2.10;;;1.30;;
79363;SDS011;68832;53.112;17.980;2023-05-10T09:27:45;2.20;;;1.20;;
79363;SDS011;68832;53.112;17.980;2023-05-10T09:30:26;2.30;;;1.50;;
79363;SDS011;68832;53.112;17.980;2023-05-10T09:32:57;2.70;;;1.10;;
79363;SDS011;68832;53.112;17.980;2023-05-10T09:35:25;2.60;;;2.10;;
79363;SDS011;68832;53.112;17.980;2023-05-10T09:37:55;1.70;;;1.00;;
79363;SDS011;68832;53.112;17.980;2023-05-10T09:40:24;3.00;;;1.80;;
79363;SDS011;68832;53.112;17.980;2023-05-10T09:45:30;3.00;;;1.00;;
79363;SDS011;68832;53.112;17.980;2023-05-10T09:47:59;3.70;;;1.70;;
79363;SDS011;68832;53.112;17.980;2023-05-10T09:50:27;3.80;;;2.50;;
79363;SDS011;68832;53.112;17.980;2023-05-10T09:55:26;7.80;;;1.90;;
79363;SDS011;68832;53.112;17.980;2023-05-10T09:58:04;4.70;;;1.40;;
79363;SDS011;68832;53.112;17.980;2023-05-10T10:00:36;1.80;;;0.90;;
79363;SDS011;68832;53.112;17.980;2023-05-10T10:03:04;6.40;;;1.30;;
79363;SDS011;68832;53.112;17.980;2023-05-10T10:05:33;6.80;;;1.50;;
79363;SDS011;68832;53.112;17.980;2023-05-10T10:08:02;2.80;;;1.20;;
79363;SDS011;68832;53.112;17.980;2023-05-10T10:10:30;2.80;;;1.30;;
79363;SDS011;68832;53.112;17.980;2023-05-10T10:15:26;3.90;;;1.20;;
79363;SDS011;68832;53.112;17.980;2023-05-10T10:17:53;2.90;;;1.20;;
79363;SDS011;68832;53.112;17.980;2023-05-10T10:20:21;6.00;;;1.70;;
79363;SDS011;68832;53.112;17.980;2023-05-10T10:22:49;4.60;;;1.80;;
79363;SDS011;68832;53.112;17.980;2023-05-10T10:25:16;3.10;;;1.60;;
79363;SDS011;68832;53.112;17.980;2023-05-10T10:30:27;3.60;;;1.80;;
79363;SDS011;68832;53.112;17.980;2023-05-10T10:33:08;2.80;;;1.30;;
79363;SDS011;68832;53.112;17.980;2023-05-10T10:35:40;2.90;;;0.90;;
79363;SDS011;68832;53.112;17.980;2023-05-10T10:38:08;5.90;;;1.40;;
79363;SDS011;68832;53.112;17.980;2023-05-10T10:40:35;3.60;;;1.50;;
79363;SDS011;68832;53.112;17.980;2023-05-10T10:49:09;2.60;;;1.10;;
79363;SDS011;68832;53.112;17.980;2023-05-10T10:51:37;5.50;;;1.90;;
79363;SDS011;68832;53.112;17.980;2023-05-10T10:54:10;3.20;;;1.40;;
79363;SDS011;68832;53.112;17.980;2023-05-10T10:56:38;3.60;;;1.10;;
79363;SDS011;68832;53.112;17.980;2023-05-10T10:59:04;4.40;;;1.40;;
79363;SDS011;68832;53.112;17.980;2023-05-10T11:01:35;4.80;;;1.60;;
79363;SDS011;68832;53.112;17.980;2023-05-10T11:06:31;4.00;;;1.00;;
79363;SDS011;68832;53.112;17.980;2023-05-10T11:09:04;7.30;;;2.00;;
79363;SDS011;68832;53.112;17.980;2023-05-10T11:11:35;7.20;;;1.80;;
79363;SDS011;68832;53.112;17.980;2023-05-10T11:14:04;4.60;;;1.70;;
79363;SDS011;68832;53.112;17.980;2023-05-10T11:16:41;3.30;;;1.30;;
79363;SDS011;68832;53.112;17.980;2023-05-10T11:19:13;4.30;;;1.00;;
79363;SDS011;68832;53.112;17.980;2023-05-10T11:21:51;10.00;;;1.70;;
79363;SDS011;68832;53.112;17.980;2023-05-10T11:24:39;5.50;;;2.00;;
79363;SDS011;68832;53.112;17.980;2023-05-10T11:27:06;3.70;;;2.00;;
79363;SDS011;68832;53.112;17.980;2023-05-10T11:29:33;7.50;;;2.40;;
79363;SDS011;68832;53.112;17.980;2023-05-10T11:32:00;5.00;;;1.60;;
79363;SDS011;68832;53.112;17.980;2023-05-10T11:34:27;4.30;;;1.60;;
79363;SDS011;68832;53.112;17.980;2023-05-10T11:37:04;3.70;;;1.30;;
79363;SDS011;68832;53.112;17.980;2023-05-10T11:39:31;3.80;;;1.60;;
79363;SDS011;68832;53.112;17.980;2023-05-10T11:41:59;6.40;;;1.80;;
79363;SDS011;68832;53.112;17.980;2023-05-10T11:44:30;5.30;;;1.70;;
79363;SDS011;68832;53.112;17.980;2023-05-10T11:46:59;8.10;;;1.30;;
79363;SDS011;68832;53.112;17.980;2023-05-10T11:49:26;7.90;;;1.50;;
79363;SDS011;68832;53.112;17.980;2023-05-10T11:51:54;4.10;;;1.90;;
79363;SDS011;68832;53.112;17.980;2023-05-10T11:54:30;5.80;;;1.70;;
79363;SDS011;68832;53.112;17.980;2023-05-10T11:56:57;5.30;;;1.30;;
79363;SDS011;68832;53.112;17.980;2023-05-10T11:59:24;3.00;;;1.20;;
79363;SDS011;68832;53.112;17.980;2023-05-10T12:01:51;3.70;;;0.90;;
79363;SDS011;68832;53.112;17.980;2023-05-10T12:04:18;4.30;;;1.30;;
79363;SDS011;68832;53.112;17.980;2023-05-10T12:06:45;2.60;;;1.50;;
79363;SDS011;68832;53.112;17.980;2023-05-10T12:09:13;5.60;;;1.30;;
79363;SDS011;68832;53.112;17.980;2023-05-10T12:14:08;4.70;;;1.70;;
79363;SDS011;68832;53.112;17.980;2023-05-10T12:21:03;8.50;;;1.50;;
79363;SDS011;68832;53.112;17.980;2023-05-10T12:23:30;6.30;;;1.90;;
79363;SDS011;68832;53.112;17.980;2023-05-10T12:26:02;8.10;;;1.40;;
79363;SDS011;68832;53.112;17.980;2023-05-10T12:28:30;4.60;;;1.40;;
79363;SDS011;68832;53.112;17.980;2023-05-10T12:31:02;18.30;;;6.60;;
79363;SDS011;68832;53.112;17.980;2023-05-10T12:33:39;6.50;;;1.30;;
79363;SDS011;68832;53.112;17.980;2023-05-10T12:36:11;9.30;;;1.70;;
79363;SDS011;68832;53.112;17.980;2023-05-10T12:38:40;5.30;;;1.40;;
79363;SDS011;68832;53.112;17.980;2023-05-10T12:41:15;5.10;;;1.60;;
79363;SDS011;68832;53.112;17.980;2023-05-10T12:43:44;4.10;;;2.00;;
79363;SDS011;68832;53.112;17.980;2023-05-10T12:46:15;7.90;;;1.50;;
79363;SDS011;68832;53.112;17.980;2023-05-10T12:48:44;7.80;;;2.20;;
79363;SDS011;68832;53.112;17.980;2023-05-10T12:51:12;3.20;;;1.30;;
79363;SDS011;68832;53.112;17.980;2023-05-10T12:53:42;6.50;;;1.50;;
79363;SDS011;68832;53.112;17.980;2023-05-10T12:56:09;4.50;;;1.30;;
79363;SDS011;68832;53.112;17.980;2023-05-10T12:58:36;8.10;;;2.20;;
79363;SDS011;68832;53.112;17.980;2023-05-10T13:01:03;5.10;;;2.10;;
79363;SDS011;68832;53.112;17.980;2023-05-10T13:03:31;5.10;;;1.90;;
79363;SDS011;68832;53.112;17.980;2023-05-10T13:05:59;7.20;;;1.80;;
79363;SDS011;68832;53.112;17.980;2023-05-10T13:08:26;6.80;;;1.10;;
79363;SDS011;68832;53.112;17.980;2023-05-10T13:10:52;6.30;;;1.70;;
79363;SDS011;68832;53.112;17.980;2023-05-10T13:13:20;5.70;;;1.60;;
79363;SDS011;68832;53.112;17.980;2023-05-10T13:15:46;8.70;;;1.00;;
79363;SDS011;68832;53.112;17.980;2023-05-10T13:18:13;3.90;;;1.40;;
79363;SDS011;68832;53.112;17.980;2023-05-10T13:20:41;5.00;;;1.00;;
79363;SDS011;68832;53.112;17.980;2023-05-10T13:23:09;7.70;;;1.00;;
79363;SDS011;68832;53.112;17.980;2023-05-10T13:25:37;5.70;;;1.80;;
79363;SDS011;68832;53.112;17.980;2023-05-10T13:28:04;4.60;;;1.60;;
79363;SDS011;68832;53.112;17.980;2023-05-10T13:30:31;6.20;;;1.20;;
79363;SDS011;68832;53.112;17.980;2023-05-10T13:32:59;11.40;;;2.30;;
79363;SDS011;68832;53.112;17.980;2023-05-10T13:35:26;6.90;;;1.50;;
79363;SDS011;68832;53.112;17.980;2023-05-10T13:37:54;5.50;;;1.70;;
79363;SDS011;68832;53.112;17.980;2023-05-10T13:40:24;4.00;;;1.20;;
79363;SDS011;68832;53.112;17.980;2023-05-10T13:42:51;5.20;;;1.30;;
79363;SDS011;68832;53.112;17.980;2023-05-10T13:45:18;5.10;;;1.90;;
79363;SDS011;68832;53.112;17.980;2023-05-10T13:47:45;4.70;;;1.50;;
79363;SDS011;68832;53.112;17.980;2023-05-10T13:50:12;5.10;;;1.80;;
79363;SDS011;68832;53.112;17.980;2023-05-10T13:52:39;6.30;;;2.20;;
79363;SDS011;68832;53.112;17.980;2023-05-10T13:55:07;3.60;;;1.40;;
79363;SDS011;68832;53.112;17.980;2023-05-10T13:57:34;12.20;;;1.70;;
79363;SDS011;68832;53.112;17.980;2023-05-10T14:00:02;6.40;;;2.20;;
79363;SDS011;68832;53.112;17.980;2023-05-10T14:02:34;4.50;;;1.40;;
79363;SDS011;68832;53.112;17.980;2023-05-10T14:05:01;7.20;;;2.40;;
79363;SDS011;68832;53.112;17.980;2023-05-10T14:07:29;1.60;;;0.90;;
79363;SDS011;68832;53.112;17.980;2023-05-10T14:09:57;7.50;;;1.40;;
79363;SDS011;68832;53.112;17.980;2023-05-10T14:12:24;7.00;;;1.50;;
79363;SDS011;68832;53.112;17.980;2023-05-10T14:14:51;4.00;;;2.20;;
79363;SDS011;68832;53.112;17.980;2023-05-10T14:17:19;4.30;;;1.40;;
79363;SDS011;68832;53.112;17.980;2023-05-10T14:19:46;3.90;;;1.30;;
79363;SDS011;68832;53.112;17.980;2023-05-10T14:22:12;7.20;;;2.30;;
79363;SDS011;68832;53.112;17.980;2023-05-10T14:24:39;5.10;;;2.00;;
79363;SDS011;68832;53.112;17.980;2023-05-10T14:27:07;2.20;;;1.10;;
79363;SDS011;68832;53.112;17.980;2023-05-10T14:29:34;4.90;;;1.90;;
79363;SDS011;68832;53.112;17.980;2023-05-10T14:32:01;8.90;;;2.70;;
79363;SDS011;68832;53.112;17.980;2023-05-10T14:36:56;5.10;;;1.40;;
79363;SDS011;68832;53.112;17.980;2023-05-10T14:39:23;4.60;;;1.30;;
79363;SDS011;68832;53.112;17.980;2023-05-10T14:41:50;6.70;;;1.60;;
79363;SDS011;68832;53.112;17.980;2023-05-10T14:44:21;4.20;;;1.50;;
79363;SDS011;68832;53.112;17.980;2023-05-10T14:46:48;5.50;;;2.30;;
79363;SDS011;68832;53.112;17.980;2023-05-10T14:49:16;5.30;;;2.10;;
79363;SDS011;68832;53.112;17.980;2023-05-10T14:51:43;8.30;;;2.30;;
79363;SDS011;68832;53.112;17.980;2023-05-10T14:54:11;4.30;;;1.30;;
79363;SDS011;68832;53.112;17.980;2023-05-10T14:56:38;3.20;;;1.30;;
79363;SDS011;68832;53.112;17.980;2023-05-10T14:59:07;5.20;;;1.20;;
79363;SDS011;68832;53.112;17.980;2023-05-10T15:01:35;5.50;;;1.80;;
79363;SDS011;68832;53.112;17.980;2023-05-10T15:04:04;4.80;;;1.90;;
79363;SDS011;68832;53.112;17.980;2023-05-10T15:06:32;7.80;;;1.30;;
79363;SDS011;68832;53.112;17.980;2023-05-10T15:09:00;3.50;;;1.70;;
79363;SDS011;68832;53.112;17.980;2023-05-10T15:11:28;4.00;;;1.80;;
79363;SDS011;68832;53.112;17.980;2023-05-10T15:13:55;3.10;;;1.50;;
79363;SDS011;68832;53.112;17.980;2023-05-10T15:16:22;8.30;;;2.90;;
79363;SDS011;68832;53.112;17.980;2023-05-10T15:18:49;7.80;;;1.80;;
79363;SDS011;68832;53.112;17.980;2023-05-10T15:21:16;4.30;;;2.50;;
79363;SDS011;68832;53.112;17.980;2023-05-10T15:23:43;5.40;;;1.30;;
79363;SDS011;68832;53.112;17.980;2023-05-10T15:26:11;3.70;;;1.20;;
79363;SDS011;68832;53.112;17.980;2023-05-10T15:28:38;5.40;;;1.70;;
79363;SDS011;68832;53.112;17.980;2023-05-10T15:31:05;3.30;;;2.60;;